sensor_id;sensor_type;location;lat;lon;timestamp;temperature;humidity
32787;DHT22;19139;49.372;8.580;2022-12-18T00:01:18;16.60;88.50
32787;DHT22;19139;49.372;8.580;2022-12-18T00:03:45;16.70;88.50
32787;DHT22;19139;49.372;8.580;2022-12-18T00:06:12;16.60;88.40
32787;DHT22;19139;49.372;8.580;2022-12-18T00:08:43;16.60;88.50
32787;DHT22;19139;49.372;8.580;2022-12-18T00:11:14;16.60;88.50
32787;DHT22;19139;49.372;8.580;2022-12-18T00:13:41;16.60;88.40
32787;DHT22;19139;49.372;8.580;2022-12-18T00:16:17;16.60;88.40
32787;DHT22;19139;49.372;8.580;2022-12-18T00:18:48;16.60;88.40
32787;DHT22;19139;49.372;8.580;2022-12-18T00:21:15;16.60;88.40
32787;DHT22;19139;49.372;8.580;2022-12-18T00:23:44;16.60;88.50
32787;DHT22;19139;49.372;8.580;2022-12-18T00:26:13;16.60;88.50
32787;DHT22;19139;49.372;8.580;2022-12-18T00:28:42;16.60;88.40
32787;DHT22;19139;49.372;8.580;2022-12-18T00:31:11;16.60;88.40
32787;DHT22;19139;49.372;8.580;2022-12-18T00:33:38;16.60;88.40
32787;DHT22;19139;49.372;8.580;2022-12-18T00:36:20;16.60;88.50
32787;DHT22;19139;49.372;8.580;2022-12-18T00:38:47;16.60;88.60
32787;DHT22;19139;49.372;8.580;2022-12-18T00:41:15;16.60;88.60
32787;DHT22;19139;49.372;8.580;2022-12-18T00:44:03;16.60;88.50
32787;DHT22;19139;49.372;8.580;2022-12-18T00:46:30;16.60;88.50
32787;DHT22;19139;49.372;8.580;2022-12-18T00:48:57;16.60;88.50
32787;DHT22;19139;49.372;8.580;2022-12-18T00:51:24;16.60;88.50
32787;DHT22;19139;49.372;8.580;2022-12-18T00:53:52;16.60;88.40
32787;DHT22;19139;49.372;8.580;2022-12-18T00:56:18;16.60;88.40
32787;DHT22;19139;49.372;8.580;2022-12-18T00:58:45;16.50;88.40
32787;DHT22;19139;49.372;8.580;2022-12-18T01:01:12;16.60;88.50
32787;DHT22;19139;49.372;8.580;2022-12-18T01:03:38;16.50;88.40
32787;DHT22;19139;49.372;8.580;2022-12-18T01:06:08;16.50;88.50
32787;DHT22;19139;49.372;8.580;2022-12-18T01:08:35;16.50;88.50
32787;DHT22;19139;49.372;8.580;2022-12-18T01:11:11;16.50;88.50
32787;DHT22;19139;49.372;8.580;2022-12-18T01:13:39;16.50;88.50
32787;DHT22;19139;49.372;8.580;2022-12-18T01:16:06;16.60;88.50
32787;DHT22;19139;49.372;8.580;2022-12-18T01:18:33;16.50;88.40
32787;DHT22;19139;49.372;8.580;2022-12-18T01:21:00;16.50;88.40
32787;DHT22;19139;49.372;8.580;2022-12-18T01:23:26;16.50;88.40
32787;DHT22;19139;49.372;8.580;2022-12-18T01:25:53;16.50;88.40
32787;DHT22;19139;49.372;8.580;2022-12-18T01:28:19;16.50;88.50
32787;DHT22;19139;49.372;8.580;2022-12-18T01:30:46;16.50;88.40
32787;DHT22;19139;49.372;8.580;2022-12-18T01:33:13;16.50;88.40
32787;DHT22;19139;49.372;8.580;2022-12-18T01:35:41;16.50;88.40
32787;DHT22;19139;49.372;8.580;2022-12-18T01:38:08;16.50;88.40
32787;DHT22;19139;49.372;8.580;2022-12-18T01:40:35;16.50;88.40
32787;DHT22;19139;49.372;8.580;2022-12-18T01:43:01;16.50;88.40
32787;DHT22;19139;49.372;8.580;2022-12-18T01:45:30;16.50;88.40
32787;DHT22;19139;49.372;8.580;2022-12-18T01:50:43;16.50;88.40
32787;DHT22;19139;49.372;8.580;2022-12-18T01:53:15;16.50;88.40
32787;DHT22;19139;49.372;8.580;2022-12-18T01:56:01;16.50;88.40
32787;DHT22;19139;49.372;8.580;2022-12-18T01:58:36;16.50;88.40
32787;DHT22;19139;49.372;8.580;2022-12-18T02:01:04;16.50;88.40
32787;DHT22;19139;49.372;8.580;2022-12-18T02:03:31;16.50;88.40
32787;DHT22;19139;49.372;8.580;2022-12-18T02:08:40;16.50;88.40
32787;DHT22;19139;49.372;8.580;2022-12-18T02:11:31;16.50;88.40
32787;DHT22;19139;49.372;8.580;2022-12-18T02:14:18;16.40;88.30
32787;DHT22;19139;49.372;8.580;2022-12-18T02:19:54;16.50;88.40
32787;DHT22;19139;49.372;8.580;2022-12-18T02:22:35;16.40;88.30
32787;DHT22;19139;49.372;8.580;2022-12-18T02:27:45;16.50;88.40
32787;DHT22;19139;49.372;8.580;2022-12-18T02:30:12;16.50;88.40
32787;DHT22;19139;49.372;8.580;2022-12-18T02:32:43;16.50;88.40
32787;DHT22;19139;49.372;8.580;2022-12-18T02:35:22;16.40;88.40
32787;DHT22;19139;49.372;8.580;2022-12-18T02:37:51;16.40;88.30
32787;DHT22;19139;49.372;8.580;2022-12-18T02:40:19;16.40;88.30
32787;DHT22;19139;49.372;8.580;2022-12-18T02:42:46;16.40;88.30
32787;DHT22;19139;49.372;8.580;2022-12-18T02:45:12;16.40;88.30
32787;DHT22;19139;49.372;8.580;2022-12-18T02:47:43;16.40;88.30
32787;DHT22;19139;49.372;8.580;2022-12-18T02:50:26;16.40;88.30
32787;DHT22;19139;49.372;8.580;2022-12-18T02:55:45;16.40;88.40
32787;DHT22;19139;49.372;8.580;2022-12-18T02:58:26;16.40;88.30
32787;DHT22;19139;49.372;8.580;2022-12-18T03:01:19;16.40;88.20
32787;DHT22;19139;49.372;8.580;2022-12-18T03:03:52;16.40;88.20
32787;DHT22;19139;49.372;8.580;2022-12-18T03:06:32;16.40;88.20
32787;DHT22;19139;49.372;8.580;2022-12-18T03:09:04;16.40;88.20
32787;DHT22;19139;49.372;8.580;2022-12-18T03:11:34;16.40;88.20
32787;DHT22;19139;49.372;8.580;2022-12-18T03:14:23;16.40;88.30
32787;DHT22;19139;49.372;8.580;2022-12-18T03:16:54;16.40;88.30
32787;DHT22;19139;49.372;8.580;2022-12-18T03:19:23;16.40;88.30
32787;DHT22;19139;49.372;8.580;2022-12-18T03:21:55;16.40;88.30
32787;DHT22;19139;49.372;8.580;2022-12-18T03:24:24;16.40;88.30
32787;DHT22;19139;49.372;8.580;2022-12-18T03:26:54;16.40;88.20
32787;DHT22;19139;49.372;8.580;2022-12-18T03:29:32;16.40;88.30
32787;DHT22;19139;49.372;8.580;2022-12-18T03:32:10;16.40;88.40
32787;DHT22;19139;49.372;8.580;2022-12-18T03:34:39;16.40;88.30
32787;DHT22;19139;49.372;8.580;2022-12-18T03:37:07;16.40;88.30
32787;DHT22;19139;49.372;8.580;2022-12-18T03:39:34;16.40;88.20
32787;DHT22;19139;49.372;8.580;2022-12-18T03:47:53;16.30;88.20
32787;DHT22;19139;49.372;8.580;2022-12-18T03:55:25;16.40;88.20
32787;DHT22;19139;49.372;8.580;2022-12-18T03:57:55;16.40;88.30
32787;DHT22;19139;49.372;8.580;2022-12-18T04:00:23;16.40;88.20
32787;DHT22;19139;49.372;8.580;2022-12-18T04:02:52;16.40;88.20
32787;DHT22;19139;49.372;8.580;2022-12-18T04:05:20;16.40;88.30
32787;DHT22;19139;49.372;8.580;2022-12-18T04:07:50;16.40;88.30
32787;DHT22;19139;49.372;8.580;2022-12-18T04:10:18;16.40;88.20
32787;DHT22;19139;49.372;8.580;2022-12-18T04:12:44;16.40;89.00
32787;DHT22;19139;49.372;8.580;2022-12-18T04:15:12;16.40;88.20
32787;DHT22;19139;49.372;8.580;2022-12-18T04:17:48;16.40;88.20
32787;DHT22;19139;49.372;8.580;2022-12-18T04:20:16;16.40;88.20
32787;DHT22;19139;49.372;8.580;2022-12-18T04:22:43;16.40;88.20
32787;DHT22;19139;49.372;8.580;2022-12-18T04:25:09;16.40;88.20
32787;DHT22;19139;49.372;8.580;2022-12-18T04:27:36;16.40;88.20
32787;DHT22;19139;49.372;8.580;2022-12-18T04:30:03;16.30;88.20
32787;DHT22;19139;49.372;8.580;2022-12-18T04:32:29;16.30;88.20
32787;DHT22;19139;49.372;8.580;2022-12-18T04:34:56;16.30;88.20
32787;DHT22;19139;49.372;8.580;2022-12-18T04:37:22;16.30;88.20
32787;DHT22;19139;49.372;8.580;2022-12-18T04:39:49;16.30;88.20
32787;DHT22;19139;49.372;8.580;2022-12-18T04:42:16;16.30;88.20
32787;DHT22;19139;49.372;8.580;2022-12-18T04:44:42;16.30;88.20
32787;DHT22;19139;49.372;8.580;2022-12-18T04:47:09;16.30;88.20
32787;DHT22;19139;49.372;8.580;2022-12-18T04:49:35;16.30;88.20
32787;DHT22;19139;49.372;8.580;2022-12-18T04:52:02;16.30;88.20
32787;DHT22;19139;49.372;8.580;2022-12-18T04:54:29;16.30;88.20
32787;DHT22;19139;49.372;8.580;2022-12-18T04:56:55;16.30;88.20
32787;DHT22;19139;49.372;8.580;2022-12-18T04:59:22;16.30;88.20
32787;DHT22;19139;49.372;8.580;2022-12-18T05:01:49;16.30;88.20
32787;DHT22;19139;49.372;8.580;2022-12-18T05:04:15;16.30;88.20
32787;DHT22;19139;49.372;8.580;2022-12-18T05:06:43;16.30;88.20
32787;DHT22;19139;49.372;8.580;2022-12-18T05:09:10;16.30;88.20
32787;DHT22;19139;49.372;8.580;2022-12-18T05:11:36;16.30;88.20
32787;DHT22;19139;49.372;8.580;2022-12-18T05:14:03;16.30;88.20
32787;DHT22;19139;49.372;8.580;2022-12-18T05:16:30;16.30;88.20
32787;DHT22;19139;49.372;8.580;2022-12-18T05:18:56;16.30;88.20
32787;DHT22;19139;49.372;8.580;2022-12-18T05:21:23;16.30;88.10
32787;DHT22;19139;49.372;8.580;2022-12-18T05:23:49;16.30;88.20
32787;DHT22;19139;49.372;8.580;2022-12-18T05:26:17;16.30;88.20
32787;DHT22;19139;49.372;8.580;2022-12-18T05:28:44;16.30;88.20
32787;DHT22;19139;49.372;8.580;2022-12-18T05:31:13;16.30;88.20
32787;DHT22;19139;49.372;8.580;2022-12-18T05:33:39;16.30;88.20
32787;DHT22;19139;49.372;8.580;2022-12-18T05:36:08;16.30;88.20
32787;DHT22;19139;49.372;8.580;2022-12-18T05:38:37;16.30;88.20
32787;DHT22;19139;49.372;8.580;2022-12-18T05:41:04;16.30;88.20
32787;DHT22;19139;49.372;8.580;2022-12-18T05:43:33;16.30;88.20
32787;DHT22;19139;49.372;8.580;2022-12-18T05:46:06;16.30;88.20
32787;DHT22;19139;49.372;8.580;2022-12-18T05:48:34;16.30;88.20
32787;DHT22;19139;49.372;8.580;2022-12-18T05:51:08;16.30;88.20
32787;DHT22;19139;49.372;8.580;2022-12-18T05:53:36;16.30;88.20
32787;DHT22;19139;49.372;8.580;2022-12-18T05:56:06;16.20;88.10
32787;DHT22;19139;49.372;8.580;2022-12-18T05:58:33;16.20;88.10
32787;DHT22;19139;49.372;8.580;2022-12-18T06:03:37;16.30;88.20
32787;DHT22;19139;49.372;8.580;2022-12-18T06:06:11;16.20;88.10
32787;DHT22;19139;49.372;8.580;2022-12-18T06:08:38;16.20;88.10
32787;DHT22;19139;49.372;8.580;2022-12-18T06:11:11;16.30;88.20
32787;DHT22;19139;49.372;8.580;2022-12-18T06:13:38;16.20;88.10
32787;DHT22;19139;49.372;8.580;2022-12-18T06:16:06;16.20;88.10
32787;DHT22;19139;49.372;8.580;2022-12-18T06:18:33;16.20;88.10
32787;DHT22;19139;49.372;8.580;2022-12-18T06:21:00;16.20;88.10
32787;DHT22;19139;49.372;8.580;2022-12-18T06:23:26;16.20;88.20
32787;DHT22;19139;49.372;8.580;2022-12-18T06:25:53;16.20;88.10
32787;DHT22;19139;49.372;8.580;2022-12-18T06:28:20;16.20;88.20
32787;DHT22;19139;49.372;8.580;2022-12-18T06:30:47;16.20;88.10
32787;DHT22;19139;49.372;8.580;2022-12-18T06:33:15;16.20;88.20
32787;DHT22;19139;49.372;8.580;2022-12-18T06:35:41;16.20;88.20
32787;DHT22;19139;49.372;8.580;2022-12-18T06:38:08;16.20;88.10
32787;DHT22;19139;49.372;8.580;2022-12-18T06:40:37;16.20;88.20
32787;DHT22;19139;49.372;8.580;2022-12-18T06:43:04;16.20;88.10
32787;DHT22;19139;49.372;8.580;2022-12-18T06:45:31;16.20;88.20
32787;DHT22;19139;49.372;8.580;2022-12-18T06:47:57;16.20;88.20
32787;DHT22;19139;49.372;8.580;2022-12-18T06:50:24;16.20;88.10
32787;DHT22;19139;49.372;8.580;2022-12-18T06:52:51;16.20;88.20
32787;DHT22;19139;49.372;8.580;2022-12-18T06:55:18;16.20;88.20
32787;DHT22;19139;49.372;8.580;2022-12-18T06:57:44;16.20;88.10
32787;DHT22;19139;49.372;8.580;2022-12-18T07:00:11;16.20;88.10
32787;DHT22;19139;49.372;8.580;2022-12-18T07:02:38;16.20;88.10
32787;DHT22;19139;49.372;8.580;2022-12-18T07:05:05;16.20;88.10
32787;DHT22;19139;49.372;8.580;2022-12-18T07:07:36;16.20;88.10
32787;DHT22;19139;49.372;8.580;2022-12-18T07:10:03;16.20;88.20
32787;DHT22;19139;49.372;8.580;2022-12-18T07:12:30;16.20;88.20
32787;DHT22;19139;49.372;8.580;2022-12-18T07:14:57;16.20;88.20
32787;DHT22;19139;49.372;8.580;2022-12-18T07:17:23;16.10;88.10
32787;DHT22;19139;49.372;8.580;2022-12-18T07:19:50;16.20;88.20
32787;DHT22;19139;49.372;8.580;2022-12-18T07:22:16;16.20;88.10
32787;DHT22;19139;49.372;8.580;2022-12-18T07:24:43;16.20;88.10
32787;DHT22;19139;49.372;8.580;2022-12-18T07:27:09;16.10;88.10
32787;DHT22;19139;49.372;8.580;2022-12-18T07:29:36;16.10;88.10
32787;DHT22;19139;49.372;8.580;2022-12-18T07:32:03;16.20;88.10
32787;DHT22;19139;49.372;8.580;2022-12-18T07:34:30;16.10;88.10
32787;DHT22;19139;49.372;8.580;2022-12-18T07:36:56;16.10;88.10
32787;DHT22;19139;49.372;8.580;2022-12-18T07:39:23;16.10;88.10
32787;DHT22;19139;49.372;8.580;2022-12-18T07:41:50;16.10;88.10
32787;DHT22;19139;49.372;8.580;2022-12-18T07:44:35;16.10;88.10
32787;DHT22;19139;49.372;8.580;2022-12-18T07:47:02;16.10;88.10
32787;DHT22;19139;49.372;8.580;2022-12-18T07:49:34;16.10;88.10
32787;DHT22;19139;49.372;8.580;2022-12-18T07:52:01;16.10;88.10
32787;DHT22;19139;49.372;8.580;2022-12-18T07:54:28;16.10;88.10
32787;DHT22;19139;49.372;8.580;2022-12-18T07:56:54;16.10;88.10
32787;DHT22;19139;49.372;8.580;2022-12-18T07:59:21;16.10;88.10
32787;DHT22;19139;49.372;8.580;2022-12-18T08:01:48;16.10;88.10
32787;DHT22;19139;49.372;8.580;2022-12-18T08:04:14;16.10;88.10
32787;DHT22;19139;49.372;8.580;2022-12-18T08:06:41;16.10;88.10
32787;DHT22;19139;49.372;8.580;2022-12-18T08:09:13;16.10;88.00
32787;DHT22;19139;49.372;8.580;2022-12-18T08:11:40;16.10;88.00
32787;DHT22;19139;49.372;8.580;2022-12-18T08:14:06;16.10;88.70
32787;DHT22;19139;49.372;8.580;2022-12-18T08:16:33;16.10;88.00
32787;DHT22;19139;49.372;8.580;2022-12-18T08:19:00;16.10;88.00
32787;DHT22;19139;49.372;8.580;2022-12-18T08:21:29;16.10;88.00
32787;DHT22;19139;49.372;8.580;2022-12-18T08:23:58;16.10;88.10
32787;DHT22;19139;49.372;8.580;2022-12-18T08:26:27;16.10;88.10
32787;DHT22;19139;49.372;8.580;2022-12-18T08:28:55;16.10;88.10
32787;DHT22;19139;49.372;8.580;2022-12-18T08:31:22;16.10;88.10
32787;DHT22;19139;49.372;8.580;2022-12-18T08:33:51;16.10;88.10
32787;DHT22;19139;49.372;8.580;2022-12-18T08:36:19;16.10;88.10
32787;DHT22;19139;49.372;8.580;2022-12-18T08:38:46;16.10;88.10
32787;DHT22;19139;49.372;8.580;2022-12-18T08:41:15;16.10;88.10
32787;DHT22;19139;49.372;8.580;2022-12-18T08:43:42;16.10;88.20
32787;DHT22;19139;49.372;8.580;2022-12-18T08:46:33;16.10;88.10
32787;DHT22;19139;49.372;8.580;2022-12-18T08:49:00;16.10;88.20
32787;DHT22;19139;49.372;8.580;2022-12-18T08:51:28;16.10;88.10
32787;DHT22;19139;49.372;8.580;2022-12-18T08:53:54;16.10;88.10
32787;DHT22;19139;49.372;8.580;2022-12-18T08:56:21;16.10;88.10
32787;DHT22;19139;49.372;8.580;2022-12-18T08:58:51;16.10;88.10
32787;DHT22;19139;49.372;8.580;2022-12-18T09:01:18;16.10;88.10
32787;DHT22;19139;49.372;8.580;2022-12-18T09:03:45;16.20;88.20
32787;DHT22;19139;49.372;8.580;2022-12-18T09:06:17;16.10;88.10
32787;DHT22;19139;49.372;8.580;2022-12-18T09:08:44;16.10;88.10
32787;DHT22;19139;49.372;8.580;2022-12-18T09:11:23;16.10;88.10
32787;DHT22;19139;49.372;8.580;2022-12-18T09:13:51;16.20;88.20
32787;DHT22;19139;49.372;8.580;2022-12-18T09:16:19;16.20;88.10
32787;DHT22;19139;49.372;8.580;2022-12-18T09:18:46;16.20;88.20
32787;DHT22;19139;49.372;8.580;2022-12-18T09:21:16;16.20;88.30
32787;DHT22;19139;49.372;8.580;2022-12-18T09:23:43;16.20;88.40
32787;DHT22;19139;49.372;8.580;2022-12-18T09:26:10;16.30;88.60
32787;DHT22;19139;49.372;8.580;2022-12-18T09:28:36;16.30;88.60
32787;DHT22;19139;49.372;8.580;2022-12-18T09:31:07;16.30;88.80
32787;DHT22;19139;49.372;8.580;2022-12-18T09:33:35;16.30;89.00
32787;DHT22;19139;49.372;8.580;2022-12-18T09:36:05;16.30;89.20
32787;DHT22;19139;49.372;8.580;2022-12-18T09:38:32;16.30;89.30
32787;DHT22;19139;49.372;8.580;2022-12-18T09:41:03;16.40;89.60
32787;DHT22;19139;49.372;8.580;2022-12-18T09:43:49;16.40;89.60
32787;DHT22;19139;49.372;8.580;2022-12-18T09:46:27;16.40;89.50
32787;DHT22;19139;49.372;8.580;2022-12-18T09:48:59;16.40;89.70
32787;DHT22;19139;49.372;8.580;2022-12-18T09:51:35;16.40;89.80
32787;DHT22;19139;49.372;8.580;2022-12-18T09:54:07;16.40;89.90
32787;DHT22;19139;49.372;8.580;2022-12-18T09:56:41;16.40;89.90
32787;DHT22;19139;49.372;8.580;2022-12-18T09:59:20;16.40;90.00
32787;DHT22;19139;49.372;8.580;2022-12-18T10:01:47;16.50;90.00
32787;DHT22;19139;49.372;8.580;2022-12-18T10:04:14;16.50;90.00
32787;DHT22;19139;49.372;8.580;2022-12-18T10:06:52;16.50;90.00
32787;DHT22;19139;49.372;8.580;2022-12-18T10:09:37;16.50;90.00
32787;DHT22;19139;49.372;8.580;2022-12-18T10:17:42;16.60;90.10
32787;DHT22;19139;49.372;8.580;2022-12-18T10:22:53;16.60;90.00
32787;DHT22;19139;49.372;8.580;2022-12-18T10:28:13;16.60;90.20
32787;DHT22;19139;49.372;8.580;2022-12-18T10:30:41;16.60;90.20
32787;DHT22;19139;49.372;8.580;2022-12-18T10:33:21;16.60;90.20
32787;DHT22;19139;49.372;8.580;2022-12-18T10:35:50;16.70;90.20
32787;DHT22;19139;49.372;8.580;2022-12-18T10:41:04;16.70;90.20
32787;DHT22;19139;49.372;8.580;2022-12-18T10:43:37;16.70;90.20
32787;DHT22;19139;49.372;8.580;2022-12-18T10:46:15;16.70;90.20
32787;DHT22;19139;49.372;8.580;2022-12-18T10:51:42;16.70;90.10
32787;DHT22;19139;49.372;8.580;2022-12-18T10:54:18;16.70;90.00
32787;DHT22;19139;49.372;8.580;2022-12-18T10:56:45;16.70;90.00
32787;DHT22;19139;49.372;8.580;2022-12-18T10:59:15;16.80;90.10
32787;DHT22;19139;49.372;8.580;2022-12-18T11:01:58;16.70;90.10
32787;DHT22;19139;49.372;8.580;2022-12-18T11:04:27;16.80;90.20
32787;DHT22;19139;49.372;8.580;2022-12-18T11:09:28;16.80;90.20
32787;DHT22;19139;49.372;8.580;2022-12-18T11:12:03;16.80;90.20
32787;DHT22;19139;49.372;8.580;2022-12-18T11:14:42;16.80;90.20
32787;DHT22;19139;49.372;8.580;2022-12-18T11:17:20;16.90;90.30
32787;DHT22;19139;49.372;8.580;2022-12-18T11:19:54;16.90;90.20
32787;DHT22;19139;49.372;8.580;2022-12-18T11:22:25;16.90;90.30
32787;DHT22;19139;49.372;8.580;2022-12-18T11:25:02;16.90;90.20
32787;DHT22;19139;49.372;8.580;2022-12-18T11:28:02;16.90;90.30
32787;DHT22;19139;49.372;8.580;2022-12-18T11:30:32;16.90;90.20
32787;DHT22;19139;49.372;8.580;2022-12-18T11:33:17;17.00;90.40
32787;DHT22;19139;49.372;8.580;2022-12-18T11:35:53;17.00;90.30
32787;DHT22;19139;49.372;8.580;2022-12-18T11:38:26;17.00;90.40
32787;DHT22;19139;49.372;8.580;2022-12-18T11:40:59;17.00;90.40
32787;DHT22;19139;49.372;8.580;2022-12-18T11:43:54;17.00;90.50
32787;DHT22;19139;49.372;8.580;2022-12-18T11:46:37;17.00;90.50
32787;DHT22;19139;49.372;8.580;2022-12-18T11:49:36;17.00;90.50
32787;DHT22;19139;49.372;8.580;2022-12-18T11:52:25;17.00;90.50
32787;DHT22;19139;49.372;8.580;2022-12-18T11:54:55;17.00;90.50
32787;DHT22;19139;49.372;8.580;2022-12-18T12:14:04;16.40;81.40
32787;DHT22;19139;49.372;8.580;2022-12-18T12:34:18;13.30;73.70
32787;DHT22;19139;49.372;8.580;2022-12-18T12:37:10;13.90;78.00
32787;DHT22;19139;49.372;8.580;2022-12-18T12:39:42;14.50;80.30
32787;DHT22;19139;49.372;8.580;2022-12-18T12:42:40;14.80;81.40
32787;DHT22;19139;49.372;8.580;2022-12-18T12:45:32;15.10;81.60
32787;DHT22;19139;49.372;8.580;2022-12-18T12:48:02;15.30;81.80
32787;DHT22;19139;49.372;8.580;2022-12-18T12:50:33;15.50;82.00
32787;DHT22;19139;49.372;8.580;2022-12-18T12:53:01;15.60;82.20
32787;DHT22;19139;49.372;8.580;2022-12-18T12:55:29;15.70;82.40
32787;DHT22;19139;49.372;8.580;2022-12-18T13:00:38;15.90;82.90
32787;DHT22;19139;49.372;8.580;2022-12-18T13:03:16;15.90;82.90
32787;DHT22;19139;49.372;8.580;2022-12-18T13:06:04;16.00;83.30
32787;DHT22;19139;49.372;8.580;2022-12-18T13:08:56;16.00;83.30
32787;DHT22;19139;49.372;8.580;2022-12-18T13:11:39;16.10;83.20
32787;DHT22;19139;49.372;8.580;2022-12-18T13:14:44;16.30;83.00
32787;DHT22;19139;49.372;8.580;2022-12-18T13:17:29;16.40;82.80
32787;DHT22;19139;49.372;8.580;2022-12-18T13:20:07;16.40;82.70
32787;DHT22;19139;49.372;8.580;2022-12-18T13:22:37;16.50;82.60
32787;DHT22;19139;49.372;8.580;2022-12-18T13:28:16;16.60;82.80
32787;DHT22;19139;49.372;8.580;2022-12-18T13:40:59;16.60;86.80
32787;DHT22;19139;49.372;8.580;2022-12-18T13:43:48;16.60;87.30
32787;DHT22;19139;49.372;8.580;2022-12-18T13:51:28;16.60;88.10
32787;DHT22;19139;49.372;8.580;2022-12-18T13:56:32;16.70;88.40
32787;DHT22;19139;49.372;8.580;2022-12-18T13:59:22;16.70;88.20
32787;DHT22;19139;49.372;8.580;2022-12-18T14:02:00;16.70;88.30
32787;DHT22;19139;49.372;8.580;2022-12-18T14:04:32;16.60;88.20
32787;DHT22;19139;49.372;8.580;2022-12-18T14:07:19;16.60;88.10
32787;DHT22;19139;49.372;8.580;2022-12-18T14:09:50;16.60;88.00
32787;DHT22;19139;49.372;8.580;2022-12-18T14:12:24;16.60;87.90
32787;DHT22;19139;49.372;8.580;2022-12-18T14:17:59;16.60;87.80
32787;DHT22;19139;49.372;8.580;2022-12-18T14:20:32;16.60;87.70
32787;DHT22;19139;49.372;8.580;2022-12-18T14:22:59;16.50;87.60
32787;DHT22;19139;49.372;8.580;2022-12-18T14:25:28;16.50;87.60
32787;DHT22;19139;49.372;8.580;2022-12-18T14:28:13;16.50;87.60
32787;DHT22;19139;49.372;8.580;2022-12-18T14:30:42;16.50;87.60
32787;DHT22;19139;49.372;8.580;2022-12-18T14:33:19;16.50;87.60
32787;DHT22;19139;49.372;8.580;2022-12-18T14:35:53;16.50;87.50
32787;DHT22;19139;49.372;8.580;2022-12-18T14:38:25;16.50;87.50
32787;DHT22;19139;49.372;8.580;2022-12-18T14:41:09;16.50;87.50
32787;DHT22;19139;49.372;8.580;2022-12-18T14:43:38;16.50;87.50
32787;DHT22;19139;49.372;8.580;2022-12-18T14:46:27;16.50;87.50
32787;DHT22;19139;49.372;8.580;2022-12-18T14:48:55;16.50;87.40
32787;DHT22;19139;49.372;8.580;2022-12-18T14:51:26;16.50;87.50
32787;DHT22;19139;49.372;8.580;2022-12-18T14:53:58;16.50;87.30
32787;DHT22;19139;49.372;8.580;2022-12-18T14:56:37;16.50;87.40
32787;DHT22;19139;49.372;8.580;2022-12-18T14:59:24;16.50;87.30
32787;DHT22;19139;49.372;8.580;2022-12-18T15:04:45;16.50;87.30
32787;DHT22;19139;49.372;8.580;2022-12-18T15:12:43;16.50;87.30
32787;DHT22;19139;49.372;8.580;2022-12-18T15:20:49;16.40;87.20
32787;DHT22;19139;49.372;8.580;2022-12-18T15:23:21;16.40;87.20
32787;DHT22;19139;49.372;8.580;2022-12-18T15:26:06;16.40;87.10
32787;DHT22;19139;49.372;8.580;2022-12-18T15:33:41;16.40;87.10
32787;DHT22;19139;49.372;8.580;2022-12-18T15:36:11;16.40;87.10
32787;DHT22;19139;49.372;8.580;2022-12-18T15:38:38;16.40;87.10
32787;DHT22;19139;49.372;8.580;2022-12-18T15:41:04;16.40;87.10
32787;DHT22;19139;49.372;8.580;2022-12-18T15:43:39;16.40;87.10
32787;DHT22;19139;49.372;8.580;2022-12-18T15:46:13;16.40;87.10
32787;DHT22;19139;49.372;8.580;2022-12-18T15:48:42;16.40;87.00
32787;DHT22;19139;49.372;8.580;2022-12-18T15:53:40;16.40;87.00
32787;DHT22;19139;49.372;8.580;2022-12-18T15:56:11;16.40;87.00
32787;DHT22;19139;49.372;8.580;2022-12-18T15:58:57;16.40;87.80
32787;DHT22;19139;49.372;8.580;2022-12-18T16:01:28;16.40;86.90
32787;DHT22;19139;49.372;8.580;2022-12-18T16:03:55;16.40;86.90
32787;DHT22;19139;49.372;8.580;2022-12-18T16:06:23;16.40;86.90
32787;DHT22;19139;49.372;8.580;2022-12-18T16:08:49;16.40;86.90
32787;DHT22;19139;49.372;8.580;2022-12-18T16:11:25;16.40;86.90
32787;DHT22;19139;49.372;8.580;2022-12-18T16:14:28;16.40;87.00
32787;DHT22;19139;49.372;8.580;2022-12-18T16:16:57;16.40;87.60
32787;DHT22;19139;49.372;8.580;2022-12-18T16:19:24;16.40;86.90
32787;DHT22;19139;49.372;8.580;2022-12-18T16:21:52;16.40;86.90
32787;DHT22;19139;49.372;8.580;2022-12-18T16:24:23;16.40;86.90
32787;DHT22;19139;49.372;8.580;2022-12-18T16:26:50;16.40;86.90
32787;DHT22;19139;49.372;8.580;2022-12-18T16:29:20;16.40;86.90
32787;DHT22;19139;49.372;8.580;2022-12-18T16:31:51;16.40;86.90
32787;DHT22;19139;49.372;8.580;2022-12-18T16:34:24;16.40;86.90
32787;DHT22;19139;49.372;8.580;2022-12-18T16:36:55;16.40;86.90
32787;DHT22;19139;49.372;8.580;2022-12-18T16:39:30;16.40;86.90
32787;DHT22;19139;49.372;8.580;2022-12-18T16:41:58;16.40;86.90
32787;DHT22;19139;49.372;8.580;2022-12-18T16:44:27;16.40;86.90
32787;DHT22;19139;49.372;8.580;2022-12-18T16:46:53;16.40;86.90
32787;DHT22;19139;49.372;8.580;2022-12-18T16:49:20;16.40;86.90
32787;DHT22;19139;49.372;8.580;2022-12-18T16:51:47;16.40;86.90
32787;DHT22;19139;49.372;8.580;2022-12-18T16:54:14;16.40;86.90
32787;DHT22;19139;49.372;8.580;2022-12-18T16:56:45;16.40;86.90
32787;DHT22;19139;49.372;8.580;2022-12-18T16:59:15;16.40;86.80
32787;DHT22;19139;49.372;8.580;2022-12-18T17:01:43;16.40;86.80
32787;DHT22;19139;49.372;8.580;2022-12-18T17:04:10;16.40;86.80
32787;DHT22;19139;49.372;8.580;2022-12-18T17:06:42;16.40;86.80
32787;DHT22;19139;49.372;8.580;2022-12-18T17:09:14;16.40;86.70
32787;DHT22;19139;49.372;8.580;2022-12-18T17:11:41;16.40;86.70
32787;DHT22;19139;49.372;8.580;2022-12-18T17:14:13;16.40;86.80
32787;DHT22;19139;49.372;8.580;2022-12-18T17:16:40;16.40;86.80
32787;DHT22;19139;49.372;8.580;2022-12-18T17:19:07;16.30;86.70
32787;DHT22;19139;49.372;8.580;2022-12-18T17:21:41;16.40;86.70
32787;DHT22;19139;49.372;8.580;2022-12-18T17:24:08;16.30;86.70
32787;DHT22;19139;49.372;8.580;2022-12-18T17:26:35;16.40;86.80
32787;DHT22;19139;49.372;8.580;2022-12-18T17:29:02;16.40;86.80
32787;DHT22;19139;49.372;8.580;2022-12-18T17:31:29;16.30;86.70
32787;DHT22;19139;49.372;8.580;2022-12-18T17:33:56;16.40;86.70
32787;DHT22;19139;49.372;8.580;2022-12-18T17:36:24;16.30;86.70
32787;DHT22;19139;49.372;8.580;2022-12-18T17:38:56;16.30;86.70
32787;DHT22;19139;49.372;8.580;2022-12-18T17:41:24;16.30;86.70
32787;DHT22;19139;49.372;8.580;2022-12-18T17:43:52;16.30;86.70
32787;DHT22;19139;49.372;8.580;2022-12-18T17:46:18;16.30;86.70
32787;DHT22;19139;49.372;8.580;2022-12-18T17:48:46;16.40;86.70
32787;DHT22;19139;49.372;8.580;2022-12-18T17:51:13;16.30;86.60
32787;DHT22;19139;49.372;8.580;2022-12-18T17:53:41;16.30;86.70
32787;DHT22;19139;49.372;8.580;2022-12-18T17:56:11;16.30;86.70
32787;DHT22;19139;49.372;8.580;2022-12-18T17:58:39;16.30;86.60
32787;DHT22;19139;49.372;8.580;2022-12-18T18:01:06;16.30;86.50
32787;DHT22;19139;49.372;8.580;2022-12-18T18:03:33;16.30;86.60